sensor_id;sensor_type;location;lat;lon;timestamp;P1;durP1;ratioP1;P2;durP2;ratioP2
19495;SDS011;9888;48.606;9.630;2023-07-24T00:05:42;1217.93;;;999.90;;
19495;SDS011;9888;48.606;9.630;2023-07-24T00:08:09;1194.77;;;999.90;;
19495;SDS011;9888;48.606;9.630;2023-07-24T00:10:41;1164.67;;;999.90;;
19495;SDS011;9888;48.606;9.630;2023-07-24T00:16:56;1194.80;;;999.90;;
19495;SDS011;9888;48.606;9.630;2023-07-24T00:19:24;1139.60;;;999.90;;
19495;SDS011;9888;48.606;9.630;2023-07-24T00:34:11;1213.70;;;999.90;;
19495;SDS011;9888;48.606;9.630;2023-07-24T00:36:46;1220.27;;;999.90;;
19495;SDS011;9888;48.606;9.630;2023-07-24T00:39:16;1117.63;;;997.73;;
19495;SDS011;9888;48.606;9.630;2023-07-24T00:41:46;1020.10;;;911.93;;
19495;SDS011;9888;48.606;9.630;2023-07-24T00:44:13;867.37;;;765.87;;
19495;SDS011;9888;48.606;9.630;2023-07-24T00:46:42;963.43;;;857.77;;
19495;SDS011;9888;48.606;9.630;2023-07-24T00:49:16;1634.73;;;919.90;;
19495;SDS011;9888;48.606;9.630;2023-07-24T00:51:44;1999.90;;;999.90;;
19495;SDS011;9888;48.606;9.630;2023-07-24T00:54:16;1604.13;;;877.80;;
19495;SDS011;9888;48.606;9.630;2023-07-24T00:56:44;1999.90;;;999.90;;
19495;SDS011;9888;48.606;9.630;2023-07-24T00:59:14;1192.33;;;745.17;;
19495;SDS011;9888;48.606;9.630;2023-07-24T01:01:42;1999.90;;;999.90;;
19495;SDS011;9888;48.606;9.630;2023-07-24T01:04:10;1999.90;;;999.90;;
19495;SDS011;9888;48.606;9.630;2023-07-24T01:06:37;1600.37;;;879.73;;
19495;SDS011;9888;48.606;9.630;2023-07-24T01:09:04;1999.90;;;999.90;;
19495;SDS011;9888;48.606;9.630;2023-07-24T01:11:45;1597.80;;;870.57;;
19495;SDS011;9888;48.606;9.630;2023-07-24T01:14:38;792.17;;;637.17;;
19495;SDS011;9888;48.606;9.630;2023-07-24T01:17:15;1999.90;;;999.90;;
19495;SDS011;9888;48.606;9.630;2023-07-24T01:19:49;849.57;;;707.00;;
19495;SDS011;9888;48.606;9.630;2023-07-24T01:22:25;1999.90;;;999.90;;
19495;SDS011;9888;48.606;9.630;2023-07-24T01:27:45;1053.50;;;945.17;;
19495;SDS011;9888;48.606;9.630;2023-07-24T01:30:19;1011.40;;;902.33;;
19495;SDS011;9888;48.606;9.630;2023-07-24T01:32:50;997.63;;;888.47;;
19495;SDS011;9888;48.606;9.630;2023-07-24T01:35:18;1021.60;;;913.40;;
19495;SDS011;9888;48.606;9.630;2023-07-24T01:37:46;1069.10;;;957.30;;
19495;SDS011;9888;48.606;9.630;2023-07-24T01:40:14;1139.47;;;999.90;;
19495;SDS011;9888;48.606;9.630;2023-07-24T01:42:42;1166.87;;;999.90;;
19495;SDS011;9888;48.606;9.630;2023-07-24T01:45:09;1142.07;;;999.90;;
19495;SDS011;9888;48.606;9.630;2023-07-24T01:47:37;1166.83;;;999.90;;
19495;SDS011;9888;48.606;9.630;2023-07-24T01:50:25;1143.77;;;999.90;;
19495;SDS011;9888;48.606;9.630;2023-07-24T01:55:54;1195.97;;;999.90;;
19495;SDS011;9888;48.606;9.630;2023-07-24T01:58:22;1204.47;;;999.90;;
19495;SDS011;9888;48.606;9.630;2023-07-24T02:00:49;1202.93;;;999.90;;
19495;SDS011;9888;48.606;9.630;2023-07-24T02:03:16;1201.50;;;999.90;;
19495;SDS011;9888;48.606;9.630;2023-07-24T02:05:48;1228.20;;;999.90;;
19495;SDS011;9888;48.606;9.630;2023-07-24T02:08:19;1195.77;;;999.90;;
19495;SDS011;9888;48.606;9.630;2023-07-24T02:10:48;1178.70;;;999.90;;
19495;SDS011;9888;48.606;9.630;2023-07-24T02:16:21;1233.77;;;999.90;;
19495;SDS011;9888;48.606;9.630;2023-07-24T02:18:50;1208.60;;;999.90;;
19495;SDS011;9888;48.606;9.630;2023-07-24T02:24:06;1237.63;;;999.90;;
19495;SDS011;9888;48.606;9.630;2023-07-24T02:26:34;1226.97;;;999.90;;
19495;SDS011;9888;48.606;9.630;2023-07-24T02:29:01;1236.53;;;999.90;;
19495;SDS011;9888;48.606;9.630;2023-07-24T02:31:29;1241.83;;;999.90;;
19495;SDS011;9888;48.606;9.630;2023-07-24T02:33:56;1208.57;;;999.90;;
19495;SDS011;9888;48.606;9.630;2023-07-24T02:36:24;1219.20;;;999.90;;
19495;SDS011;9888;48.606;9.630;2023-07-24T02:38:51;1227.33;;;999.90;;
19495;SDS011;9888;48.606;9.630;2023-07-24T02:41:18;1244.63;;;999.90;;
19495;SDS011;9888;48.606;9.630;2023-07-24T02:43:46;1233.00;;;999.90;;
19495;SDS011;9888;48.606;9.630;2023-07-24T02:46:15;1237.77;;;999.90;;
19495;SDS011;9888;48.606;9.630;2023-07-24T02:48:59;1239.43;;;999.90;;
19495;SDS011;9888;48.606;9.630;2023-07-24T02:51:27;1242.57;;;999.90;;
19495;SDS011;9888;48.606;9.630;2023-07-24T02:57:20;1225.63;;;999.90;;
19495;SDS011;9888;48.606;9.630;2023-07-24T02:59:48;1221.27;;;999.90;;
19495;SDS011;9888;48.606;9.630;2023-07-24T03:02:16;1219.60;;;999.90;;
19495;SDS011;9888;48.606;9.630;2023-07-24T03:04:44;1218.97;;;999.90;;
19495;SDS011;9888;48.606;9.630;2023-07-24T03:07:20;1209.07;;;999.90;;
19495;SDS011;9888;48.606;9.630;2023-07-24T03:13:15;1199.90;;;999.90;;
19495;SDS011;9888;48.606;9.630;2023-07-24T03:15:55;1200.13;;;999.90;;
19495;SDS011;9888;48.606;9.630;2023-07-24T03:25:04;1209.80;;;999.90;;
19495;SDS011;9888;48.606;9.630;2023-07-24T03:33:28;1198.97;;;999.90;;
19495;SDS011;9888;48.606;9.630;2023-07-24T03:35:55;1219.33;;;999.90;;
19495;SDS011;9888;48.606;9.630;2023-07-24T03:44:23;1223.17;;;999.90;;
19495;SDS011;9888;48.606;9.630;2023-07-24T03:46:51;1212.23;;;999.90;;
19495;SDS011;9888;48.606;9.630;2023-07-24T03:52:09;1211.70;;;999.90;;
19495;SDS011;9888;48.606;9.630;2023-07-24T03:54:40;1210.83;;;999.90;;
19495;SDS011;9888;48.606;9.630;2023-07-24T03:57:08;1226.63;;;999.90;;
19495;SDS011;9888;48.606;9.630;2023-07-24T03:59:36;1210.97;;;999.90;;
19495;SDS011;9888;48.606;9.630;2023-07-24T04:02:04;1214.30;;;999.90;;
19495;SDS011;9888;48.606;9.630;2023-07-24T04:04:32;1230.30;;;999.90;;
19495;SDS011;9888;48.606;9.630;2023-07-24T04:06:59;1212.00;;;999.90;;
19495;SDS011;9888;48.606;9.630;2023-07-24T04:09:26;1196.87;;;999.90;;
19495;SDS011;9888;48.606;9.630;2023-07-24T04:12:11;1215.13;;;999.90;;
19495;SDS011;9888;48.606;9.630;2023-07-24T04:14:45;1222.13;;;999.90;;
19495;SDS011;9888;48.606;9.630;2023-07-24T04:17:12;1216.77;;;999.90;;
19495;SDS011;9888;48.606;9.630;2023-07-24T04:19:44;1204.13;;;999.90;;
19495;SDS011;9888;48.606;9.630;2023-07-24T04:28:19;1232.43;;;999.90;;
19495;SDS011;9888;48.606;9.630;2023-07-24T04:30:46;1229.93;;;999.90;;
19495;SDS011;9888;48.606;9.630;2023-07-24T04:33:14;1232.73;;;999.90;;
19495;SDS011;9888;48.606;9.630;2023-07-24T04:35:42;1229.90;;;999.90;;
19495;SDS011;9888;48.606;9.630;2023-07-24T04:38:50;1239.63;;;999.90;;
19495;SDS011;9888;48.606;9.630;2023-07-24T04:44:19;1255.33;;;999.90;;
19495;SDS011;9888;48.606;9.630;2023-07-24T04:46:47;1251.90;;;999.90;;
19495;SDS011;9888;48.606;9.630;2023-07-24T04:49:18;1248.20;;;999.90;;
19495;SDS011;9888;48.606;9.630;2023-07-24T04:51:52;1258.40;;;999.90;;
19495;SDS011;9888;48.606;9.630;2023-07-24T04:54:19;1255.13;;;999.90;;
19495;SDS011;9888;48.606;9.630;2023-07-24T04:56:47;1271.00;;;999.90;;
19495;SDS011;9888;48.606;9.630;2023-07-24T05:03:18;1258.50;;;999.90;;
19495;SDS011;9888;48.606;9.630;2023-07-24T05:05:56;1271.40;;;999.90;;
19495;SDS011;9888;48.606;9.630;2023-07-24T05:08:23;1261.53;;;999.90;;
19495;SDS011;9888;48.606;9.630;2023-07-24T05:10:54;1272.10;;;999.90;;
19495;SDS011;9888;48.606;9.630;2023-07-24T05:13:25;1275.97;;;999.90;;
19495;SDS011;9888;48.606;9.630;2023-07-24T05:15:54;1271.17;;;999.90;;
19495;SDS011;9888;48.606;9.630;2023-07-24T05:18:22;1285.83;;;999.90;;
19495;SDS011;9888;48.606;9.630;2023-07-24T05:20:49;1286.30;;;999.90;;
19495;SDS011;9888;48.606;9.630;2023-07-24T05:23:19;1296.27;;;999.90;;
19495;SDS011;9888;48.606;9.630;2023-07-24T05:25:46;1288.23;;;999.90;;
19495;SDS011;9888;48.606;9.630;2023-07-24T05:28:23;1283.17;;;999.90;;
19495;SDS011;9888;48.606;9.630;2023-07-24T05:30:52;1307.73;;;999.90;;
19495;SDS011;9888;48.606;9.630;2023-07-24T05:33:20;1308.13;;;999.90;;
19495;SDS011;9888;48.606;9.630;2023-07-24T05:38:43;1310.17;;;999.90;;
19495;SDS011;9888;48.606;9.630;2023-07-24T05:41:10;1306.20;;;999.90;;
19495;SDS011;9888;48.606;9.630;2023-07-24T05:43:39;1309.40;;;999.90;;
19495;SDS011;9888;48.606;9.630;2023-07-24T05:46:08;1328.17;;;999.90;;
19495;SDS011;9888;48.606;9.630;2023-07-24T05:48:36;1254.30;;;999.90;;
19495;SDS011;9888;48.606;9.630;2023-07-24T05:51:04;1036.70;;;829.80;;
19495;SDS011;9888;48.606;9.630;2023-07-24T05:53:40;1083.53;;;902.60;;
19495;SDS011;9888;48.606;9.630;2023-07-24T05:56:16;1048.70;;;879.20;;
19495;SDS011;9888;48.606;9.630;2023-07-24T05:58:49;1135.53;;;986.87;;
19495;SDS011;9888;48.606;9.630;2023-07-24T06:01:17;1403.00;;;926.60;;
19495;SDS011;9888;48.606;9.630;2023-07-24T06:03:44;914.00;;;747.10;;
19495;SDS011;9888;48.606;9.630;2023-07-24T06:06:11;878.13;;;687.57;;
19495;SDS011;9888;48.606;9.630;2023-07-24T06:11:33;1999.90;;;999.90;;
19495;SDS011;9888;48.606;9.630;2023-07-24T06:14:02;1999.90;;;999.90;;
19495;SDS011;9888;48.606;9.630;2023-07-24T06:16:34;1999.90;;;999.90;;
19495;SDS011;9888;48.606;9.630;2023-07-24T06:19:03;1999.90;;;999.90;;
19495;SDS011;9888;48.606;9.630;2023-07-24T06:21:42;1999.90;;;999.90;;
19495;SDS011;9888;48.606;9.630;2023-07-24T06:24:11;1999.90;;;999.90;;
19495;SDS011;9888;48.606;9.630;2023-07-24T06:26:40;1999.90;;;999.90;;
19495;SDS011;9888;48.606;9.630;2023-07-24T06:29:08;1999.90;;;999.90;;
19495;SDS011;9888;48.606;9.630;2023-07-24T06:31:35;1999.90;;;999.90;;
19495;SDS011;9888;48.606;9.630;2023-07-24T06:34:03;1999.90;;;999.90;;
19495;SDS011;9888;48.606;9.630;2023-07-24T06:36:30;1999.90;;;999.90;;
19495;SDS011;9888;48.606;9.630;2023-07-24T06:45:37;1999.90;;;999.90;;
19495;SDS011;9888;48.606;9.630;2023-07-24T06:50:58;1999.90;;;999.90;;
19495;SDS011;9888;48.606;9.630;2023-07-24T06:53:26;1999.90;;;999.90;;
19495;SDS011;9888;48.606;9.630;2023-07-24T06:55:53;1999.90;;;999.90;;
19495;SDS011;9888;48.606;9.630;2023-07-24T06:58:21;1999.90;;;999.90;;
19495;SDS011;9888;48.606;9.630;2023-07-24T07:00:49;1999.90;;;999.90;;
19495;SDS011;9888;48.606;9.630;2023-07-24T07:03:18;1999.90;;;999.90;;
19495;SDS011;9888;48.606;9.630;2023-07-24T07:05:46;1999.90;;;999.90;;
19495;SDS011;9888;48.606;9.630;2023-07-24T07:08:15;1999.90;;;999.90;;
19495;SDS011;9888;48.606;9.630;2023-07-24T07:10:43;1999.90;;;999.90;;
19495;SDS011;9888;48.606;9.630;2023-07-24T07:13:12;1999.90;;;999.90;;
19495;SDS011;9888;48.606;9.630;2023-07-24T07:15:39;1999.90;;;999.90;;
19495;SDS011;9888;48.606;9.630;2023-07-24T07:18:07;1999.90;;;999.90;;
19495;SDS011;9888;48.606;9.630;2023-07-24T07:20:44;1999.90;;;999.90;;
19495;SDS011;9888;48.606;9.630;2023-07-24T07:23:12;1999.90;;;999.90;;
19495;SDS011;9888;48.606;9.630;2023-07-24T07:25:40;1999.90;;;999.90;;
19495;SDS011;9888;48.606;9.630;2023-07-24T07:28:09;1999.90;;;999.90;;
19495;SDS011;9888;48.606;9.630;2023-07-24T07:30:35;1999.90;;;999.90;;
19495;SDS011;9888;48.606;9.630;2023-07-24T07:33:03;1999.90;;;999.90;;
19495;SDS011;9888;48.606;9.630;2023-07-24T07:35:31;1999.90;;;999.90;;
19495;SDS011;9888;48.606;9.630;2023-07-24T07:37:59;1999.90;;;999.90;;
19495;SDS011;9888;48.606;9.630;2023-07-24T07:40:29;1999.90;;;999.90;;
19495;SDS011;9888;48.606;9.630;2023-07-24T07:46:05;1999.90;;;999.90;;
19495;SDS011;9888;48.606;9.630;2023-07-24T07:48:33;1999.90;;;999.90;;
19495;SDS011;9888;48.606;9.630;2023-07-24T07:51:03;1999.90;;;999.90;;
19495;SDS011;9888;48.606;9.630;2023-07-24T07:53:32;1999.90;;;999.90;;
19495;SDS011;9888;48.606;9.630;2023-07-24T07:56:03;1999.90;;;999.90;;
19495;SDS011;9888;48.606;9.630;2023-07-24T07:58:43;1999.90;;;999.90;;
19495;SDS011;9888;48.606;9.630;2023-07-24T08:01:11;1999.90;;;999.90;;
19495;SDS011;9888;48.606;9.630;2023-07-24T08:03:41;1999.90;;;999.90;;
19495;SDS011;9888;48.606;9.630;2023-07-24T08:06:10;1999.90;;;999.90;;
19495;SDS011;9888;48.606;9.630;2023-07-24T08:08:42;1999.90;;;999.90;;
19495;SDS011;9888;48.606;9.630;2023-07-24T08:11:12;1999.90;;;999.90;;
19495;SDS011;9888;48.606;9.630;2023-07-24T08:13:40;1999.90;;;999.90;;
19495;SDS011;9888;48.606;9.630;2023-07-24T08:16:16;1999.90;;;999.90;;
19495;SDS011;9888;48.606;9.630;2023-07-24T08:18:47;1999.90;;;999.90;;
19495;SDS011;9888;48.606;9.630;2023-07-24T08:21:20;1999.90;;;999.90;;
19495;SDS011;9888;48.606;9.630;2023-07-24T08:23:48;1999.90;;;999.90;;
19495;SDS011;9888;48.606;9.630;2023-07-24T08:29:38;1999.90;;;999.90;;
19495;SDS011;9888;48.606;9.630;2023-07-24T08:32:06;1999.90;;;999.90;;
19495;SDS011;9888;48.606;9.630;2023-07-24T08:34:37;1999.90;;;999.90;;
19495;SDS011;9888;48.606;9.630;2023-07-24T08:37:13;1999.90;;;999.90;;
19495;SDS011;9888;48.606;9.630;2023-07-24T08:39:41;1999.90;;;999.90;;
19495;SDS011;9888;48.606;9.630;2023-07-24T08:42:09;1999.90;;;999.90;;
19495;SDS011;9888;48.606;9.630;2023-07-24T08:44:37;1999.90;;;999.90;;
19495;SDS011;9888;48.606;9.630;2023-07-24T08:47:05;1999.90;;;999.90;;
19495;SDS011;9888;48.606;9.630;2023-07-24T08:49:40;1999.90;;;999.90;;
19495;SDS011;9888;48.606;9.630;2023-07-24T08:52:09;1999.90;;;999.90;;
19495;SDS011;9888;48.606;9.630;2023-07-24T08:54:38;1999.90;;;999.90;;
19495;SDS011;9888;48.606;9.630;2023-07-24T08:57:06;1999.90;;;999.90;;
19495;SDS011;9888;48.606;9.630;2023-07-24T08:59:34;1999.90;;;999.90;;
19495;SDS011;9888;48.606;9.630;2023-07-24T09:02:02;1999.90;;;999.90;;
19495;SDS011;9888;48.606;9.630;2023-07-24T09:04:32;1999.90;;;999.90;;
19495;SDS011;9888;48.606;9.630;2023-07-24T09:07:05;1999.90;;;999.90;;
19495;SDS011;9888;48.606;9.630;2023-07-24T09:09:35;1999.90;;;999.90;;
19495;SDS011;9888;48.606;9.630;2023-07-24T09:12:08;1409.93;;;698.33;;
19495;SDS011;9888;48.606;9.630;2023-07-24T09:14:42;1999.90;;;999.90;;
19495;SDS011;9888;48.606;9.630;2023-07-24T09:17:11;1999.90;;;999.90;;
19495;SDS011;9888;48.606;9.630;2023-07-24T09:19:39;1999.90;;;999.90;;
19495;SDS011;9888;48.606;9.630;2023-07-24T09:22:12;1999.90;;;999.90;;
19495;SDS011;9888;48.606;9.630;2023-07-24T09:24:50;1999.90;;;999.90;;
19495;SDS011;9888;48.606;9.630;2023-07-24T09:27:53;1999.90;;;999.90;;
19495;SDS011;9888;48.606;9.630;2023-07-24T09:33:34;1999.90;;;999.90;;
19495;SDS011;9888;48.606;9.630;2023-07-24T09:36:09;1999.90;;;999.90;;
19495;SDS011;9888;48.606;9.630;2023-07-24T09:38:41;1999.90;;;999.90;;
19495;SDS011;9888;48.606;9.630;2023-07-24T09:44:28;1999.90;;;999.90;;
19495;SDS011;9888;48.606;9.630;2023-07-24T09:46:58;1617.60;;;834.13;;
19495;SDS011;9888;48.606;9.630;2023-07-24T09:49:26;1999.90;;;999.90;;
19495;SDS011;9888;48.606;9.630;2023-07-24T09:51:54;1999.90;;;999.90;;
19495;SDS011;9888;48.606;9.630;2023-07-24T09:54:28;1999.90;;;999.90;;
19495;SDS011;9888;48.606;9.630;2023-07-24T09:57:14;1999.90;;;999.90;;
19495;SDS011;9888;48.606;9.630;2023-07-24T10:03:22;1999.90;;;999.90;;
19495;SDS011;9888;48.606;9.630;2023-07-24T10:06:01;1999.90;;;999.90;;
19495;SDS011;9888;48.606;9.630;2023-07-24T10:08:40;1999.90;;;999.90;;
19495;SDS011;9888;48.606;9.630;2023-07-24T10:11:13;1999.90;;;999.90;;
19495;SDS011;9888;48.606;9.630;2023-07-24T10:13:41;1999.90;;;999.90;;
19495;SDS011;9888;48.606;9.630;2023-07-24T10:16:09;1999.90;;;999.90;;
19495;SDS011;9888;48.606;9.630;2023-07-24T10:18:45;1999.90;;;999.90;;
19495;SDS011;9888;48.606;9.630;2023-07-24T10:21:14;1341.50;;;831.80;;
19495;SDS011;9888;48.606;9.630;2023-07-24T10:23:43;1999.90;;;999.90;;
19495;SDS011;9888;48.606;9.630;2023-07-24T10:26:15;1999.90;;;999.90;;
19495;SDS011;9888;48.606;9.630;2023-07-24T10:28:50;1999.90;;;999.90;;
19495;SDS011;9888;48.606;9.630;2023-07-24T10:31:23;1999.90;;;999.90;;
19495;SDS011;9888;48.606;9.630;2023-07-24T10:33:54;1999.90;;;999.90;;
19495;SDS011;9888;48.606;9.630;2023-07-24T10:36:32;1999.90;;;999.90;;
19495;SDS011;9888;48.606;9.630;2023-07-24T10:39:00;1999.90;;;999.90;;
19495;SDS011;9888;48.606;9.630;2023-07-24T10:41:35;1999.90;;;999.90;;
19495;SDS011;9888;48.606;9.630;2023-07-24T10:44:02;1182.57;;;979.67;;
19495;SDS011;9888;48.606;9.630;2023-07-24T10:46:37;1255.57;;;999.90;;
19495;SDS011;9888;48.606;9.630;2023-07-24T10:49:08;1258.73;;;999.90;;
19495;SDS011;9888;48.606;9.630;2023-07-24T10:51:36;1281.57;;;999.90;;
19495;SDS011;9888;48.606;9.630;2023-07-24T10:54:08;1308.87;;;999.90;;
19495;SDS011;9888;48.606;9.630;2023-07-24T10:56:36;1328.83;;;999.90;;
19495;SDS011;9888;48.606;9.630;2023-07-24T10:59:04;1323.83;;;999.90;;
19495;SDS011;9888;48.606;9.630;2023-07-24T11:01:33;1315.23;;;999.90;;
19495;SDS011;9888;48.606;9.630;2023-07-24T11:04:02;1314.80;;;999.90;;
19495;SDS011;9888;48.606;9.630;2023-07-24T11:06:38;1294.47;;;999.90;;
19495;SDS011;9888;48.606;9.630;2023-07-24T11:09:06;1303.83;;;999.90;;
19495;SDS011;9888;48.606;9.630;2023-07-24T11:11:35;1305.53;;;999.90;;
19495;SDS011;9888;48.606;9.630;2023-07-24T11:14:03;1304.37;;;999.90;;
19495;SDS011;9888;48.606;9.630;2023-07-24T11:16:49;1303.63;;;999.90;;
19495;SDS011;9888;48.606;9.630;2023-07-24T11:19:26;1297.40;;;999.90;;
19495;SDS011;9888;48.606;9.630;2023-07-24T11:21:59;1309.67;;;999.90;;
19495;SDS011;9888;48.606;9.630;2023-07-24T11:24:29;1295.87;;;999.90;;
19495;SDS011;9888;48.606;9.630;2023-07-24T11:26:58;1293.40;;;999.90;;
19495;SDS011;9888;48.606;9.630;2023-07-24T11:29:25;1311.07;;;999.90;;
19495;SDS011;9888;48.606;9.630;2023-07-24T11:31:53;1323.20;;;999.90;;
19495;SDS011;9888;48.606;9.630;2023-07-24T11:34:24;1300.97;;;999.90;;
19495;SDS011;9888;48.606;9.630;2023-07-24T11:36:52;1305.63;;;999.90;;
19495;SDS011;9888;48.606;9.630;2023-07-24T11:39:26;1291.83;;;999.90;;
19495;SDS011;9888;48.606;9.630;2023-07-24T11:41:57;1315.40;;;999.90;;
19495;SDS011;9888;48.606;9.630;2023-07-24T11:44:28;1312.00;;;999.90;;
19495;SDS011;9888;48.606;9.630;2023-07-24T11:47:03;1311.20;;;999.90;;
19495;SDS011;9888;48.606;9.630;2023-07-24T11:49:31;1325.07;;;999.90;;
19495;SDS011;9888;48.606;9.630;2023-07-24T11:52:04;1309.23;;;999.90;;
19495;SDS011;9888;48.606;9.630;2023-07-24T11:54:44;1317.27;;;999.90;;
19495;SDS011;9888;48.606;9.630;2023-07-24T11:57:32;1334.83;;;999.90;;
19495;SDS011;9888;48.606;9.630;2023-07-24T12:00:00;1383.83;;;999.90;;
19495;SDS011;9888;48.606;9.630;2023-07-24T12:02:31;1341.87;;;999.90;;
19495;SDS011;9888;48.606;9.630;2023-07-24T12:05:01;1250.60;;;999.90;;
19495;SDS011;9888;48.606;9.630;2023-07-24T12:07:38;1219.73;;;999.90;;
19495;SDS011;9888;48.606;9.630;2023-07-24T12:10:06;1999.90;;;999.90;;
19495;SDS011;9888;48.606;9.630;2023-07-24T12:12:40;1999.90;;;999.90;;
19495;SDS011;9888;48.606;9.630;2023-07-24T12:15:12;1999.90;;;999.90;;
19495;SDS011;9888;48.606;9.630;2023-07-24T12:17:40;1999.90;;;999.90;;
19495;SDS011;9888;48.606;9.630;2023-07-24T12:20:08;1999.90;;;999.90;;
19495;SDS011;9888;48.606;9.630;2023-07-24T12:22:38;1999.90;;;999.90;;
19495;SDS011;9888;48.606;9.630;2023-07-24T12:25:08;1999.90;;;999.90;;
19495;SDS011;9888;48.606;9.630;2023-07-24T12:27:37;1999.90;;;999.90;;
19495;SDS011;9888;48.606;9.630;2023-07-24T12:30:13;1999.90;;;999.90;;
19495;SDS011;9888;48.606;9.630;2023-07-24T12:32:42;1999.90;;;999.90;;
19495;SDS011;9888;48.606;9.630;2023-07-24T12:35:11;1999.90;;;999.90;;
19495;SDS011;9888;48.606;9.630;2023-07-24T12:37:57;1999.90;;;999.90;;
19495;SDS011;9888;48.606;9.630;2023-07-24T12:40:27;1999.90;;;999.90;;
19495;SDS011;9888;48.606;9.630;2023-07-24T12:42:58;1999.90;;;999.90;;
19495;SDS011;9888;48.606;9.630;2023-07-24T12:45:28;1999.90;;;999.90;;
19495;SDS011;9888;48.606;9.630;2023-07-24T12:47:56;1999.90;;;999.90;;
19495;SDS011;9888;48.606;9.630;2023-07-24T12:50:42;1999.90;;;999.90;;
19495;SDS011;9888;48.606;9.630;2023-07-24T12:53:12;1999.90;;;999.90;;
19495;SDS011;9888;48.606;9.630;2023-07-24T12:55:41;1999.90;;;999.90;;
19495;SDS011;9888;48.606;9.630;2023-07-24T12:58:09;1999.90;;;999.90;;
19495;SDS011;9888;48.606;9.630;2023-07-24T13:00:36;1999.90;;;999.90;;
19495;SDS011;9888;48.606;9.630;2023-07-24T13:03:05;1999.90;;;999.90;;
19495;SDS011;9888;48.606;9.630;2023-07-24T13:05:35;1999.90;;;999.90;;
19495;SDS011;9888;48.606;9.630;2023-07-24T13:08:06;1999.90;;;999.90;;
19495;SDS011;9888;48.606;9.630;2023-07-24T13:10:36;1999.90;;;999.90;;
19495;SDS011;9888;48.606;9.630;2023-07-24T13:13:18;1999.90;;;999.90;;
19495;SDS011;9888;48.606;9.630;2023-07-24T13:15:46;1999.90;;;999.90;;
19495;SDS011;9888;48.606;9.630;2023-07-24T13:18:17;1999.90;;;999.90;;
19495;SDS011;9888;48.606;9.630;2023-07-24T13:20:45;1999.90;;;999.90;;
19495;SDS011;9888;48.606;9.630;2023-07-24T13:23:15;1999.90;;;999.90;;
19495;SDS011;9888;48.606;9.630;2023-07-24T13:28:39;1999.90;;;999.90;;
19495;SDS011;9888;48.606;9.630;2023-07-24T13:31:16;1999.90;;;999.90;;
19495;SDS011;9888;48.606;9.630;2023-07-24T13:33:55;1999.90;;;999.90;;
19495;SDS011;9888;48.606;9.630;2023-07-24T13:36:23;1999.90;;;999.90;;
19495;SDS011;9888;48.606;9.630;2023-07-24T13:38:50;1999.90;;;999.90;;
19495;SDS011;9888;48.606;9.630;2023-07-24T13:41:17;1999.90;;;999.90;;
19495;SDS011;9888;48.606;9.630;2023-07-24T13:43:49;1999.90;;;999.90;;
19495;SDS011;9888;48.606;9.630;2023-07-24T13:49:41;1999.90;;;999.90;;
19495;SDS011;9888;48.606;9.630;2023-07-24T13:55:00;1999.90;;;999.90;;
19495;SDS011;9888;48.606;9.630;2023-07-24T13:57:33;1999.90;;;999.90;;
19495;SDS011;9888;48.606;9.630;2023-07-24T14:00:03;1999.90;;;999.90;;
19495;SDS011;9888;48.606;9.630;2023-07-24T14:02:31;1999.90;;;999.90;;
19495;SDS011;9888;48.606;9.630;2023-07-24T14:08:21;1999.90;;;999.90;;
19495;SDS011;9888;48.606;9.630;2023-07-24T14:13:40;1999.90;;;999.90;;
19495;SDS011;9888;48.606;9.630;2023-07-24T14:16:08;1999.90;;;999.90;;
19495;SDS011;9888;48.606;9.630;2023-07-24T14:18:37;1999.90;;;999.90;;
19495;SDS011;9888;48.606;9.630;2023-07-24T14:21:04;1999.90;;;999.90;;
19495;SDS011;9888;48.606;9.630;2023-07-24T14:23:34;1999.90;;;999.90;;
19495;SDS011;9888;48.606;9.630;2023-07-24T14:26:01;1999.90;;;999.90;;
19495;SDS011;9888;48.606;9.630;2023-07-24T14:28:28;1999.90;;;999.90;;
19495;SDS011;9888;48.606;9.630;2023-07-24T14:30:56;1999.90;;;999.90;;
19495;SDS011;9888;48.606;9.630;2023-07-24T14:33:26;1999.90;;;999.90;;
19495;SDS011;9888;48.606;9.630;2023-07-24T14:35:54;1999.90;;;999.90;;
19495;SDS011;9888;48.606;9.630;2023-07-24T14:38:22;1999.90;;;999.90;;
19495;SDS011;9888;48.606;9.630;2023-07-24T14:40:56;947.53;;;684.57;;
19495;SDS011;9888;48.606;9.630;2023-07-24T14:43:25;1134.23;;;885.17;;
19495;SDS011;9888;48.606;9.630;2023-07-24T14:45:55;1658.10;;;924.03;;
19495;SDS011;9888;48.606;9.630;2023-07-24T14:48:23;1091.80;;;905.13;;
19495;SDS011;9888;48.606;9.630;2023-07-24T14:50:52;1255.10;;;999.90;;
19495;SDS011;9888;48.606;9.630;2023-07-24T14:53:20;1208.80;;;975.87;;
19495;SDS011;9888;48.606;9.630;2023-07-24T14:55:48;1197.60;;;999.90;;
19495;SDS011;9888;48.606;9.630;2023-07-24T14:58:17;1291.93;;;999.90;;
19495;SDS011;9888;48.606;9.630;2023-07-24T15:01:02;1254.20;;;999.90;;
19495;SDS011;9888;48.606;9.630;2023-07-24T15:03:31;1272.77;;;999.90;;
19495;SDS011;9888;48.606;9.630;2023-07-24T15:05:59;1380.43;;;999.90;;
19495;SDS011;9888;48.606;9.630;2023-07-24T15:08:30;1455.53;;;999.90;;
19495;SDS011;9888;48.606;9.630;2023-07-24T15:10:59;1310.60;;;999.90;;
19495;SDS011;9888;48.606;9.630;2023-07-24T15:13:27;1316.83;;;999.90;;
19495;SDS011;9888;48.606;9.630;2023-07-24T15:15:55;1374.90;;;999.90;;
19495;SDS011;9888;48.606;9.630;2023-07-24T15:18:25;1411.13;;;999.90;;
19495;SDS011;9888;48.606;9.630;2023-07-24T15:20:54;1336.20;;;999.90;;
19495;SDS011;9888;48.606;9.630;2023-07-24T15:23:22;1341.57;;;999.90;;
19495;SDS011;9888;48.606;9.630;2023-07-24T15:25:50;1364.10;;;999.90;;
19495;SDS011;9888;48.606;9.630;2023-07-24T15:28:17;1326.37;;;999.90;;
19495;SDS011;9888;48.606;9.630;2023-07-24T15:30:46;1339.47;;;999.90;;
19495;SDS011;9888;48.606;9.630;2023-07-24T15:33:16;1373.10;;;999.90;;
19495;SDS011;9888;48.606;9.630;2023-07-24T15:35:46;1347.37;;;999.90;;
19495;SDS011;9888;48.606;9.630;2023-07-24T15:38:16;1376.80;;;999.90;;
19495;SDS011;9888;48.606;9.630;2023-07-24T15:40:48;1354.53;;;999.90;;
19495;SDS011;9888;48.606;9.630;2023-07-24T15:43:28;1382.87;;;999.90;;
19495;SDS011;9888;48.606;9.630;2023-07-24T15:46:03;1307.23;;;999.90;;
19495;SDS011;9888;48.606;9.630;2023-07-24T15:48:35;1354.97;;;999.90;;
19495;SDS011;9888;48.606;9.630;2023-07-24T15:51:02;1329.00;;;999.90;;
19495;SDS011;9888;48.606;9.630;2023-07-24T15:53:53;1408.77;;;999.90;;
19495;SDS011;9888;48.606;9.630;2023-07-24T15:56:33;1290.90;;;999.90;;
19495;SDS011;9888;48.606;9.630;2023-07-24T16:56:07;1402.27;;;917.47;;
19495;SDS011;9888;48.606;9.630;2023-07-24T16:58:37;1288.10;;;999.90;;
19495;SDS011;9888;48.606;9.630;2023-07-24T17:01:07;1183.30;;;993.03;;
19495;SDS011;9888;48.606;9.630;2023-07-24T17:03:35;1310.77;;;999.90;;
19495;SDS011;9888;48.606;9.630;2023-07-24T17:06:02;1398.00;;;999.90;;
19495;SDS011;9888;48.606;9.630;2023-07-24T17:08:29;1999.90;;;999.90;;
19495;SDS011;9888;48.606;9.630;2023-07-24T17:10:56;1999.90;;;999.90;;
19495;SDS011;9888;48.606;9.630;2023-07-24T17:13:26;1999.90;;;999.90;;